createdAt,value
2023-04-17T05:00:50.831Z,7.74
2023-04-17T05:03:28.032Z,7.78
2023-04-17T05:05:56.412Z,7.79
2023-04-17T05:08:27.476Z,7.79
2023-04-17T05:11:02.628Z,7.78
2023-04-17T05:13:32.234Z,7.77
2023-04-17T05:16:01.475Z,7.73
2023-04-17T05:18:29.563Z,7.77
2023-04-17T05:20:56.509Z,7.75
2023-04-17T05:23:25.332Z,7.79
2023-04-17T05:25:52.576Z,7.77
2023-04-17T05:28:19.191Z,7.81
2023-04-17T05:30:47.236Z,7.77
2023-04-17T05:33:19.457Z,7.78
2023-04-17T05:36:00.198Z,7.82
2023-04-17T05:38:26.935Z,7.85
2023-04-17T05:40:54.821Z,7.83
2023-04-17T05:43:21.485Z,7.84
2023-04-17T05:45:49.315Z,7.80
2023-04-17T05:48:16.196Z,7.76
2023-04-17T05:50:43.598Z,7.73
2023-04-17T05:53:10.753Z,7.77
2023-04-17T05:55:45.502Z,7.82
2023-04-17T06:00:45.186Z,7.87
2023-04-17T06:03:17.977Z,7.88
2023-04-17T06:05:47.418Z,7.92
2023-04-17T06:08:15.578Z,7.94
2023-04-17T06:10:45.976Z,7.91
2023-04-17T06:13:12.783Z,7.93
2023-04-17T06:15:44.290Z,7.92
2023-04-17T06:18:11.035Z,7.89
2023-04-17T06:20:40.017Z,7.86
2023-04-17T06:23:06.954Z,7.91
2023-04-17T06:25:33.853Z,7.94
2023-04-17T06:28:01.114Z,7.94
2023-04-17T06:30:28.568Z,7.95
2023-04-17T06:33:09.581Z,7.98
2023-04-17T06:35:37.656Z,7.98
2023-04-17T06:38:25.214Z,7.98
2023-04-17T06:40:52.798Z,8.01
2023-04-17T06:43:19.886Z,8.07
2023-04-17T06:45:48.330Z,8.08
2023-04-17T06:48:14.925Z,8.15
2023-04-17T06:50:42.706Z,8.18
2023-04-17T06:53:09.256Z,8.22
2023-04-17T06:55:36.817Z,8.29
2023-04-17T06:58:04.893Z,8.43
2023-04-17T07:00:32.237Z,8.47
2023-04-17T07:02:58.909Z,8.55
2023-04-17T07:05:26.310Z,8.65
2023-04-17T07:07:52.952Z,8.73
2023-04-17T07:10:20.126Z,8.77
2023-04-17T07:12:46.860Z,8.81
2023-04-17T07:15:14.382Z,8.75
2023-04-17T07:17:40.993Z,8.82
2023-04-17T07:20:08.803Z,8.91
2023-04-17T07:22:35.642Z,8.96
2023-04-17T07:25:02.849Z,9.04
2023-04-17T07:27:29.518Z,9.15
2023-04-17T07:29:56.785Z,9.23
2023-04-17T07:32:26.435Z,9.27
2023-04-17T07:34:53.335Z,9.36
2023-04-17T07:37:20.536Z,9.40
2023-04-17T07:39:50.286Z,9.48
2023-04-17T07:42:17.369Z,9.64
2023-04-17T07:44:43.998Z,9.67
2023-04-17T07:47:11.550Z,9.75
2023-04-17T07:49:40.713Z,9.92
2023-04-17T07:52:08.118Z,9.98
2023-04-17T07:54:34.712Z,10.03
2023-04-17T07:57:03.862Z,10.15
2023-04-17T07:59:30.667Z,10.17
2023-04-17T08:01:58.023Z,10.26
2023-04-17T08:04:25.621Z,10.32
2023-04-17T08:06:53.161Z,10.46
2023-04-17T08:09:22.175Z,10.48
2023-04-17T08:11:57.166Z,10.60
2023-04-17T08:14:25.773Z,10.69
2023-04-17T08:16:53.166Z,10.72
2023-04-17T08:19:19.902Z,10.81
2023-04-17T08:21:50.994Z,10.89
2023-04-17T08:24:19.728Z,11.07
2023-04-17T08:26:48.060Z,11.17
2023-04-17T08:29:14.950Z,11.17
2023-04-17T08:31:42.696Z,11.30
2023-04-17T08:34:14.891Z,11.41
2023-04-17T08:36:43.413Z,11.57
2023-04-17T08:39:13.860Z,11.65
2023-04-17T08:41:51.444Z,11.75
2023-04-17T08:44:21.247Z,11.79
2023-04-17T08:46:49.917Z,11.62
2023-04-17T08:49:16.700Z,11.73
2023-04-17T08:51:44.699Z,11.87
2023-04-17T08:54:11.410Z,11.85
2023-04-17T08:56:39.284Z,12.08
2023-04-17T08:59:06.166Z,12.26
2023-04-17T09:01:35.201Z,12.39
2023-04-17T09:04:02.178Z,12.42
2023-04-17T09:06:48.465Z,12.58
2023-04-17T09:09:15.683Z,12.79
2023-04-17T09:11:43.011Z,12.89
2023-04-17T09:14:29.761Z,13.03
2023-04-17T09:16:58.092Z,13.18
2023-04-17T09:19:24.618Z,13.28
2023-04-17T09:21:54.784Z,13.53
2023-04-17T09:24:35.178Z,13.75
2023-04-17T09:27:21.966Z,13.80
2023-04-17T09:30:01.227Z,13.76
2023-04-17T09:32:29.546Z,13.96
2023-04-17T09:34:59.221Z,13.99
2023-04-17T09:37:45.991Z,14.19
2023-04-17T09:40:12.950Z,14.30
2023-04-17T09:42:57.245Z,14.29
2023-04-17T09:45:25.858Z,14.48
2023-04-17T09:47:55.818Z,14.54
2023-04-17T09:50:25.212Z,14.87
2023-04-17T09:52:52.611Z,15.01
2023-04-17T09:55:30.225Z,14.96
2023-04-17T09:57:58.852Z,15.00
2023-04-17T10:00:27.890Z,15.13
2023-04-17T10:02:56.646Z,15.49
2023-04-17T10:05:30.016Z,15.51
2023-04-17T10:07:57.082Z,15.70
2023-04-17T10:10:34.120Z,15.68
2023-04-17T10:13:03.029Z,15.71
2023-04-17T10:15:31.443Z,15.73
2023-04-17T10:18:18.678Z,15.68
2023-04-17T10:20:48.762Z,15.70
2023-04-17T10:23:32.263Z,15.61
2023-04-17T10:26:29.825Z,15.81
2023-04-17T10:29:00.025Z,15.74
2023-04-17T10:32:04.784Z,15.90
2023-04-17T10:34:38.306Z,16.02
2023-04-17T10:37:05.587Z,15.98
2023-04-17T10:39:53.364Z,16.07
2023-04-17T10:42:21.832Z,16.15
2023-04-17T10:44:49.584Z,16.29
2023-04-17T10:47:20.840Z,16.30
2023-04-17T10:49:59.753Z,16.34
2023-04-17T10:52:33.003Z,16.44
2023-04-17T10:55:16.234Z,16.42
2023-04-17T10:57:55.626Z,16.49
2023-04-17T11:00:30.854Z,16.62
2023-04-17T11:02:58.712Z,16.64
2023-04-17T11:05:25.395Z,16.62
2023-04-17T11:07:52.835Z,16.53
2023-04-17T11:10:21.009Z,16.41
2023-04-17T11:12:49.501Z,16.14
2023-04-17T11:15:19.214Z,16.28
2023-04-17T11:17:48.304Z,16.32
2023-04-17T11:20:17.435Z,16.24
2023-04-17T11:22:45.202Z,16.01
2023-04-17T11:25:27.074Z,16.05
2023-04-17T11:27:58.294Z,16.18
2023-04-17T11:30:42.544Z,16.16
2023-04-17T11:33:09.282Z,16.10
2023-04-17T11:35:38.965Z,16.32
2023-04-17T11:38:06.567Z,16.45
2023-04-17T11:40:34.062Z,16.62
2023-04-17T11:43:10.130Z,16.93
2023-04-17T11:45:38.009Z,16.84
2023-04-17T11:48:04.822Z,17.00
2023-04-17T11:50:33.140Z,17.06
2023-04-17T11:53:01.246Z,16.99
2023-04-17T11:55:31.278Z,17.13
2023-04-17T11:58:00.529Z,17.17
2023-04-17T12:00:29.705Z,17.27
2023-04-17T12:02:58.860Z,17.37
2023-04-17T12:05:27.138Z,17.44
2023-04-17T12:08:04.797Z,17.15
2023-04-17T12:10:42.938Z,16.97
2023-04-17T12:13:10.920Z,17.08
2023-04-17T12:15:38.837Z,17.37
2023-04-17T12:18:06.417Z,17.20
2023-04-17T12:20:34.026Z,17.18
2023-04-17T12:23:01.251Z,17.18
2023-04-17T12:25:28.038Z,17.40
2023-04-17T12:27:57.257Z,17.44
2023-04-17T12:30:24.333Z,17.62
2023-04-17T12:32:52.458Z,17.50
2023-04-17T12:35:20.535Z,17.72
2023-04-17T12:37:48.919Z,17.61
2023-04-17T12:40:16.836Z,17.41
2023-04-17T12:42:49.184Z,17.59
2023-04-17T12:45:17.124Z,17.71
2023-04-17T12:47:44.525Z,17.25
2023-04-17T12:50:12.131Z,16.99
2023-04-17T12:52:40.636Z,16.85
2023-04-17T12:55:08.326Z,16.69
2023-04-17T12:57:36.914Z,16.76
2023-04-17T13:00:06.543Z,16.67
2023-04-17T13:02:33.803Z,16.63
2023-04-17T13:05:00.833Z,16.73
2023-04-17T13:07:29.045Z,16.77
2023-04-17T13:09:55.800Z,16.64
2023-04-17T13:12:23.223Z,16.65
2023-04-17T13:14:49.813Z,16.65
2023-04-17T13:17:17.671Z,16.70
2023-04-17T13:19:44.584Z,16.31
2023-04-17T13:22:12.606Z,16.25
2023-04-17T13:24:39.466Z,16.31
2023-04-17T13:27:06.870Z,16.41
2023-04-17T13:29:33.465Z,16.42
2023-04-17T13:32:00.360Z,16.40
2023-04-17T13:34:27.048Z,16.17
2023-04-17T13:36:57.581Z,15.84
2023-04-17T13:39:24.360Z,15.56
2023-04-17T13:41:51.684Z,15.52
2023-04-17T13:44:18.730Z,15.53
2023-04-17T13:46:46.343Z,15.64
2023-04-17T13:49:13.301Z,15.73
2023-04-17T13:51:40.874Z,15.84
2023-04-17T13:54:08.609Z,15.85
2023-04-17T13:56:35.592Z,15.99
2023-04-17T13:59:03.732Z,15.96
2023-04-17T14:01:30.754Z,15.92
2023-04-17T14:04:00.399Z,15.86
2023-04-17T14:06:28.796Z,15.85
2023-04-17T14:08:56.057Z,15.54
2023-04-17T14:11:24.636Z,15.62
2023-04-17T14:13:51.632Z,15.50
2023-04-17T14:16:19.700Z,15.36
2023-04-17T14:18:48.349Z,15.21
2023-04-17T14:21:40.775Z,15.12
2023-04-17T14:24:07.376Z,14.99
2023-04-17T14:26:34.758Z,14.97
2023-04-17T14:29:01.440Z,14.97
2023-04-17T14:31:28.893Z,14.90
2023-04-17T14:33:55.732Z,14.96
2023-04-17T14:36:22.688Z,15.04
2023-04-17T14:38:51.201Z,15.03
2023-04-17T14:41:19.003Z,15.13
2023-04-17T14:43:45.730Z,15.20
2023-04-17T14:46:13.059Z,15.26
2023-04-17T14:48:54.142Z,15.34
2023-04-17T14:51:24.140Z,15.35
2023-04-17T14:53:52.892Z,15.43
2023-04-17T14:56:21.970Z,15.43
2023-04-17T14:58:48.809Z,15.51
2023-04-17T15:01:16.297Z,15.47
2023-04-17T15:03:46.788Z,15.49
2023-04-17T15:06:16.525Z,15.42
2023-04-17T15:08:43.236Z,15.44
2023-04-17T15:11:10.758Z,15.37
2023-04-17T15:13:37.575Z,15.24
2023-04-17T15:16:05.029Z,15.07
2023-04-17T15:18:32.104Z,15.02
2023-04-17T15:20:59.306Z,15.04
2023-04-17T15:23:26.531Z,15.01
2023-04-17T15:25:57.813Z,15.00
2023-04-17T15:28:24.934Z,14.94
2023-04-17T15:30:52.287Z,14.86
2023-04-17T15:33:19.195Z,14.85
2023-04-17T15:35:46.517Z,14.83
2023-04-17T15:38:13.163Z,14.82
2023-04-17T15:40:40.526Z,14.79
2023-04-17T15:43:07.237Z,14.79
2023-04-17T15:45:33.823Z,14.80
2023-04-17T15:48:01.631Z,14.69
2023-04-17T15:50:29.024Z,14.69
2023-04-17T15:52:55.676Z,14.68
2023-04-17T15:55:22.956Z,14.68
2023-04-17T15:57:49.551Z,14.68
2023-04-17T16:00:17.197Z,14.65
2023-04-17T16:02:47.563Z,14.61
2023-04-17T16:05:18.180Z,14.59
2023-04-17T16:07:45.502Z,14.51
2023-04-17T16:10:16.380Z,14.39
2023-04-17T16:12:44.473Z,14.33
2023-04-17T16:15:15.139Z,14.28
2023-04-17T16:17:41.956Z,14.28
2023-04-17T16:20:11.234Z,14.25
2023-04-17T16:22:37.927Z,14.22
2023-04-17T16:25:06.588Z,14.14
2023-04-17T16:27:33.652Z,14.16
2023-04-17T16:30:00.885Z,14.17
2023-04-17T16:32:27.639Z,14.15
2023-04-17T16:34:54.922Z,14.15
2023-04-17T16:37:21.607Z,14.20
2023-04-17T16:39:49.069Z,14.20
2023-04-17T16:42:15.705Z,14.20
2023-04-17T16:44:45.806Z,14.20
2023-04-17T16:47:14.260Z,14.18
2023-04-17T16:49:42.556Z,14.17
2023-04-17T16:52:09.355Z,14.17
2023-04-17T16:54:36.715Z,14.18
2023-04-17T16:57:03.507Z,14.16
2023-04-17T16:59:30.708Z,14.12
2023-04-17T17:01:57.914Z,14.02
2023-04-17T17:04:25.685Z,14.00
2023-04-17T17:06:52.392Z,13.99
2023-04-17T17:09:20.586Z,13.93
2023-04-17T17:11:47.870Z,13.88
2023-04-17T17:14:16.371Z,13.85
2023-04-17T17:16:43.034Z,13.74
2023-04-17T17:19:10.860Z,13.71
2023-04-17T17:21:38.374Z,13.70
2023-04-17T17:24:06.320Z,13.68
2023-04-17T17:26:32.997Z,13.70
2023-04-17T17:29:00.494Z,13.66
2023-04-17T17:31:30.371Z,13.59
2023-04-17T17:34:11.977Z,13.52
2023-04-17T17:36:49.615Z,13.44
2023-04-17T17:39:16.915Z,13.42
2023-04-17T17:41:47.476Z,13.38
2023-04-17T17:44:15.228Z,13.35
2023-04-17T17:46:45.999Z,13.27
2023-04-17T17:49:13.545Z,13.21
2023-04-17T17:51:45.939Z,13.16
2023-04-17T17:56:54.916Z,13.03
2023-04-17T17:59:23.951Z,12.94
2023-04-17T18:01:54.710Z,12.89
2023-04-17T18:04:22.817Z,12.87
2023-04-17T18:07:03.617Z,12.81
2023-04-17T18:09:31.025Z,12.76
2023-04-17T18:11:57.754Z,12.65
2023-04-17T18:14:24.714Z,12.61
2023-04-17T18:16:51.371Z,12.57
2023-04-17T18:19:18.272Z,12.53
2023-04-17T18:21:46.028Z,12.45
2023-04-17T18:24:14.934Z,12.42
2023-04-17T18:26:41.497Z,12.39
2023-04-17T18:29:08.737Z,12.32
2023-04-17T18:31:35.335Z,12.26
2023-04-17T18:34:03.132Z,12.18
2023-04-17T18:36:30.696Z,12.15
2023-04-17T18:38:57.836Z,12.11
2023-04-17T18:41:26.161Z,12.03
2023-04-17T18:43:53.321Z,11.94
2023-04-17T18:46:19.970Z,11.90
2023-04-17T18:48:47.184Z,11.83
2023-04-17T18:51:17.515Z,11.79
2023-04-17T18:53:44.876Z,11.71
2023-04-17T18:56:13.541Z,11.66
2023-04-17T18:58:40.851Z,11.57
2023-04-17T19:01:12.842Z,11.51
2023-04-17T19:03:41.155Z,11.46
2023-04-17T19:06:08.053Z,11.38
2023-04-17T19:08:36.327Z,11.38
2023-04-17T19:11:03.147Z,11.32
2023-04-17T19:13:30.645Z,11.26
2023-04-17T19:15:57.587Z,11.19
2023-04-17T19:18:24.860Z,11.15
2023-04-17T19:20:51.421Z,11.07
2023-04-17T19:23:18.629Z,11.04
2023-04-17T19:25:49.809Z,10.96
2023-04-17T19:28:17.062Z,10.88
2023-04-17T19:30:43.658Z,10.85
2023-04-17T19:33:11.054Z,10.79
2023-04-17T19:35:37.695Z,10.74
2023-04-17T19:38:04.579Z,10.69
2023-04-17T19:40:31.929Z,10.65
2023-04-17T19:43:01.488Z,10.59
2023-04-17T19:45:28.528Z,10.52
2023-04-17T19:47:56.894Z,10.44
2023-04-17T19:50:27.411Z,10.41
2023-04-17T19:52:55.693Z,10.34
2023-04-17T19:55:23.132Z,10.28
2023-04-17T19:57:50.851Z,10.25
2023-04-17T20:00:18.265Z,10.18
2023-04-17T20:02:45.035Z,10.14
2023-04-17T20:05:11.770Z,10.07
2023-04-17T20:07:38.349Z,10.01
2023-04-17T20:10:06.167Z,9.98
2023-04-17T20:12:33.065Z,9.93
2023-04-17T20:14:59.694Z,9.91
2023-04-17T20:17:26.652Z,9.85
2023-04-17T20:19:53.959Z,9.81
2023-04-17T20:22:20.548Z,9.77
2023-04-17T20:24:50.908Z,9.71
2023-04-17T20:27:18.126Z,9.61
2023-04-17T20:29:45.315Z,9.60
